createdAt,value
2022-12-25T00:00:32.167Z,3.33
2022-12-25T00:03:24.106Z,3.33
2022-12-25T00:05:56.071Z,3.34
2022-12-25T00:08:28.787Z,3.35
2022-12-25T00:11:05.733Z,3.35
2022-12-25T00:13:37.867Z,3.35
2022-12-25T00:16:13.831Z,3.35
2022-12-25T00:18:47.300Z,3.35
2022-12-25T00:21:19.889Z,3.36
2022-12-25T00:23:55.920Z,3.36
2022-12-25T00:26:28.628Z,3.36
2022-12-25T00:29:01.123Z,3.37
2022-12-25T00:31:34.644Z,3.38
2022-12-25T00:34:09.754Z,3.38
2022-12-25T00:36:42.407Z,3.39
2022-12-25T00:39:14.306Z,3.40
2022-12-25T00:42:03.808Z,3.41
2022-12-25T00:44:36.181Z,3.41
2022-12-25T00:47:08.104Z,3.41
2022-12-25T00:49:40.178Z,3.41
2022-12-25T00:52:14.360Z,3.40
2022-12-25T00:54:44.612Z,3.39
2022-12-25T00:57:18.253Z,3.36
2022-12-25T00:59:50.233Z,3.34
2022-12-25T01:02:25.681Z,3.32
2022-12-25T01:04:58.861Z,3.29
2022-12-25T01:07:30.644Z,3.28
2022-12-25T01:10:19.906Z,3.26
2022-12-25T01:12:52.772Z,3.24
2022-12-25T01:15:27.265Z,3.23
2022-12-25T01:18:02.634Z,3.22
2022-12-25T01:20:38.123Z,3.21
2022-12-25T01:23:10.106Z,3.20
2022-12-25T01:25:42.273Z,3.19
2022-12-25T01:28:14.095Z,3.18
2022-12-25T01:30:51.875Z,3.17
2022-12-25T01:33:23.757Z,3.16
2022-12-25T01:35:55.998Z,3.15
2022-12-25T01:38:27.861Z,3.14
2022-12-25T01:40:59.962Z,3.13
2022-12-25T01:43:33.686Z,3.12
2022-12-25T01:46:06.056Z,3.11
2022-12-25T01:48:41.746Z,3.09
2022-12-25T01:51:20.430Z,3.08
2022-12-25T01:53:52.899Z,3.07
2022-12-25T01:56:25.225Z,3.06
2022-12-25T01:58:57.601Z,3.06
2022-12-25T02:01:32.358Z,3.04
2022-12-25T02:04:08.325Z,3.03
2022-12-25T02:06:41.159Z,3.03
2022-12-25T02:09:13.701Z,3.03
2022-12-25T02:12:00.569Z,3.04
2022-12-25T02:14:35.859Z,3.03
2022-12-25T02:17:13.433Z,3.02
2022-12-25T02:19:59.682Z,3.01
2022-12-25T02:22:39.953Z,3.00
2022-12-25T02:25:25.485Z,2.99
2022-12-25T02:28:07.992Z,2.98
2022-12-25T02:30:44.575Z,2.99
2022-12-25T02:33:38.382Z,2.98
2022-12-25T02:36:13.267Z,2.98
2022-12-25T02:39:00.609Z,2.96
2022-12-25T02:41:35.436Z,2.96
2022-12-25T02:44:27.797Z,2.95
2022-12-25T02:47:16.964Z,2.95
2022-12-25T02:50:07.436Z,2.94
2022-12-25T02:52:57.353Z,2.93
2022-12-25T02:55:54.512Z,2.93
2022-12-25T02:58:44.659Z,2.94
2022-12-25T03:01:37.094Z,2.93
2022-12-25T03:04:30.115Z,2.93
2022-12-25T03:07:05.924Z,2.93
2022-12-25T03:09:57.557Z,2.94
2022-12-25T03:12:40.905Z,2.94
2022-12-25T03:15:31.988Z,2.94
2022-12-25T03:18:06.149Z,2.94
2022-12-25T03:20:54.233Z,2.94
2022-12-25T03:23:46.894Z,2.92
2022-12-25T03:26:36.606Z,2.91
2022-12-25T03:29:09.335Z,2.90
2022-12-25T03:31:45.691Z,2.90
2022-12-25T03:34:44.744Z,2.90
2022-12-25T03:37:56.380Z,2.90
2022-12-25T03:40:50.813Z,2.91
2022-12-25T03:43:44.936Z,2.92
2022-12-25T03:46:37.115Z,2.92
2022-12-25T03:49:31.187Z,2.94
2022-12-25T03:52:22.020Z,2.93
2022-12-25T03:55:13.304Z,2.94
2022-12-25T03:58:03.441Z,2.94
2022-12-25T04:00:53.010Z,2.94
2022-12-25T04:03:47.729Z,2.93
2022-12-25T04:06:37.822Z,2.93
2022-12-25T04:09:28.996Z,2.93
2022-12-25T04:12:18.571Z,2.93
2022-12-25T04:15:07.953Z,2.92
2022-12-25T04:17:57.381Z,2.93
2022-12-25T04:20:50.489Z,2.93
2022-12-25T04:23:39.648Z,2.94
2022-12-25T04:26:29.205Z,2.95
2022-12-25T04:29:18.852Z,2.97
2022-12-25T04:32:08.745Z,2.97
2022-12-25T04:34:58.619Z,2.97
2022-12-25T04:37:31.705Z,2.98
2022-12-25T04:40:04.245Z,2.99
2022-12-25T04:42:37.313Z,2.98
2022-12-25T04:45:11.544Z,2.99
2022-12-25T04:47:44.316Z,2.99
2022-12-25T04:50:16.423Z,2.98
2022-12-25T04:52:50.170Z,2.99
2022-12-25T04:55:22.731Z,3.00
2022-12-25T04:57:54.599Z,3.03
2022-12-25T05:00:26.644Z,3.02
2022-12-25T05:03:00.373Z,3.02
2022-12-25T05:05:30.984Z,3.00
2022-12-25T05:08:06.999Z,3.00
2022-12-25T05:10:42.218Z,2.99
2022-12-25T05:13:14.353Z,3.00
2022-12-25T05:15:46.426Z,3.00
2022-12-25T05:18:18.424Z,3.00
2022-12-25T05:20:56.439Z,2.99
2022-12-25T05:23:28.535Z,2.97
2022-12-25T05:26:00.898Z,2.97
2022-12-25T05:28:32.841Z,2.99
2022-12-25T05:31:06.260Z,3.00
2022-12-25T05:33:41.435Z,3.02
2022-12-25T05:36:14.948Z,3.03
2022-12-25T05:38:47.189Z,3.04
2022-12-25T05:41:19.134Z,3.05
2022-12-25T05:43:51.230Z,3.05
2022-12-25T05:46:23.896Z,3.06
2022-12-25T05:48:56.311Z,3.05
2022-12-25T05:51:28.501Z,3.06
2022-12-25T05:54:00.451Z,3.06
2022-12-25T05:56:32.304Z,3.05
2022-12-25T05:59:05.525Z,3.07
2022-12-25T06:01:37.389Z,3.07
2022-12-25T06:04:12.753Z,3.08
2022-12-25T06:06:46.914Z,3.09
2022-12-25T06:09:19.236Z,3.09
2022-12-25T06:11:51.091Z,3.09
2022-12-25T06:14:23.012Z,3.08
2022-12-25T06:16:56.313Z,3.09
2022-12-25T06:19:28.542Z,3.09
2022-12-25T06:22:00.386Z,3.10
2022-12-25T06:24:33.298Z,3.11
2022-12-25T06:27:05.142Z,3.13
2022-12-25T06:29:39.115Z,3.15
2022-12-25T06:32:10.941Z,3.16
2022-12-25T06:34:43.262Z,3.16
2022-12-25T06:37:15.168Z,3.19
2022-12-25T06:39:49.552Z,3.20
2022-12-25T06:42:19.780Z,3.21
2022-12-25T06:44:53.573Z,3.21
2022-12-25T06:47:25.979Z,3.21
2022-12-25T06:49:59.700Z,3.22
2022-12-25T06:52:33.291Z,3.22
2022-12-25T06:55:05.754Z,3.23
2022-12-25T06:57:40.721Z,3.24
2022-12-25T07:00:15.236Z,3.25
2022-12-25T07:02:52.711Z,3.27
2022-12-25T07:05:27.668Z,3.28
2022-12-25T07:07:59.482Z,3.30
2022-12-25T07:10:31.615Z,3.32
2022-12-25T07:13:05.926Z,3.32
2022-12-25T07:15:38.065Z,3.33
2022-12-25T07:18:11.495Z,3.33
2022-12-25T07:20:43.903Z,3.34
2022-12-25T07:23:23.344Z,3.34
2022-12-25T07:26:00.673Z,3.36
2022-12-25T07:28:33.550Z,3.36
2022-12-25T07:31:07.215Z,3.38
2022-12-25T07:33:40.130Z,3.40
2022-12-25T07:36:13.376Z,3.42
2022-12-25T07:38:48.020Z,3.45
2022-12-25T07:41:20.924Z,3.49
2022-12-25T07:43:54.168Z,3.51
2022-12-25T07:46:27.062Z,3.56
2022-12-25T07:49:03.677Z,3.61
2022-12-25T07:51:36.477Z,3.65
2022-12-25T07:54:08.586Z,3.69
2022-12-25T07:56:40.643Z,3.72
2022-12-25T07:59:12.746Z,3.76
2022-12-25T08:01:44.751Z,3.78
2022-12-25T08:04:17.181Z,3.80
2022-12-25T08:06:49.686Z,3.82
2022-12-25T08:09:22.862Z,3.86
2022-12-25T08:11:57.247Z,3.89
2022-12-25T08:14:32.254Z,3.92
2022-12-25T08:17:06.792Z,3.94
2022-12-25T08:19:42.967Z,3.97
2022-12-25T08:22:18.996Z,3.99
2022-12-25T08:24:55.121Z,4.01
2022-12-25T08:27:27.912Z,4.03
2022-12-25T08:30:01.559Z,4.04
2022-12-25T08:32:36.552Z,4.06
2022-12-25T08:35:10.596Z,4.09
2022-12-25T08:37:51.236Z,4.11
2022-12-25T08:40:24.634Z,4.14
2022-12-25T08:43:04.658Z,4.15
2022-12-25T08:45:37.026Z,4.16
2022-12-25T08:48:12.535Z,4.18
2022-12-25T08:50:50.535Z,4.21
2022-12-25T08:53:24.339Z,4.23
2022-12-25T08:56:05.288Z,4.25
2022-12-25T08:58:37.598Z,4.27
2022-12-25T09:01:10.225Z,4.28
2022-12-25T09:03:44.315Z,4.30
2022-12-25T09:06:17.881Z,4.31
2022-12-25T09:08:50.294Z,4.31
2022-12-25T09:11:25.498Z,4.32
2022-12-25T09:13:59.094Z,4.34
2022-12-25T09:16:33.512Z,4.35
2022-12-25T09:19:03.932Z,4.37
2022-12-25T09:21:38.178Z,4.39
2022-12-25T09:24:13.909Z,4.40
2022-12-25T09:26:45.657Z,4.41
2022-12-25T09:29:18.866Z,4.42
2022-12-25T09:31:51.983Z,4.42
2022-12-25T09:34:23.998Z,4.42
2022-12-25T09:37:05.422Z,4.42
2022-12-25T09:39:45.869Z,4.43
2022-12-25T09:42:25.109Z,4.44
2022-12-25T09:45:01.142Z,4.44
2022-12-25T09:47:36.764Z,4.46
2022-12-25T09:50:13.162Z,4.50
2022-12-25T09:52:48.025Z,4.53
2022-12-25T09:55:24.391Z,4.53
2022-12-25T09:58:02.108Z,4.53
2022-12-25T10:00:36.981Z,4.52
2022-12-25T10:03:20.319Z,4.52
2022-12-25T10:06:03.291Z,4.54
2022-12-25T10:08:52.144Z,4.55
2022-12-25T10:11:40.958Z,4.56
2022-12-25T10:14:22.707Z,4.58
2022-12-25T10:17:08.836Z,4.61
2022-12-25T10:19:47.309Z,4.64
2022-12-25T10:22:25.171Z,4.65
2022-12-25T10:25:00.181Z,4.69
2022-12-25T10:27:41.391Z,4.73
2022-12-25T10:30:22.834Z,4.79
2022-12-25T10:32:57.016Z,4.82
2022-12-25T10:35:31.628Z,4.84
2022-12-25T10:38:11.561Z,4.83
2022-12-25T10:40:56.323Z,4.83
2022-12-25T10:43:47.923Z,4.82
2022-12-25T10:46:23.280Z,4.81
2022-12-25T10:48:57.840Z,4.82
2022-12-25T10:51:35.550Z,4.83
2022-12-25T10:54:26.038Z,4.83
2022-12-25T10:57:00.148Z,4.83
2022-12-25T10:59:35.813Z,4.83
2022-12-25T11:02:16.926Z,4.84
2022-12-25T11:04:49.800Z,4.84
2022-12-25T11:07:28.960Z,4.85
2022-12-25T11:10:05.686Z,4.85
2022-12-25T11:12:42.967Z,4.86
2022-12-25T11:15:36.332Z,4.89
2022-12-25T11:18:21.530Z,4.94
2022-12-25T11:20:55.539Z,4.99
2022-12-25T11:23:31.260Z,5.02
2022-12-25T11:26:04.662Z,5.03
2022-12-25T11:28:38.892Z,5.01
2022-12-25T11:31:10.137Z,4.99
2022-12-25T11:33:45.974Z,4.98
2022-12-25T11:36:27.085Z,4.98
2022-12-25T11:39:09.354Z,4.99
2022-12-25T11:41:43.843Z,5.01
2022-12-25T11:44:35.249Z,5.00
2022-12-25T11:47:15.152Z,5.01
2022-12-25T11:49:58.595Z,5.00
2022-12-25T11:52:37.445Z,4.99
2022-12-25T11:55:16.842Z,5.00
2022-12-25T11:58:02.916Z,5.00
2022-12-25T12:00:39.401Z,5.00
2022-12-25T12:03:18.366Z,5.00
2022-12-25T12:05:58.321Z,5.01
2022-12-25T12:08:30.241Z,5.02
2022-12-25T12:11:18.233Z,5.03
2022-12-25T12:14:05.002Z,5.04
2022-12-25T12:16:39.478Z,5.05
2022-12-25T12:19:25.847Z,5.05
2022-12-25T12:21:58.535Z,5.05
2022-12-25T12:24:39.062Z,5.05
2022-12-25T12:27:26.406Z,5.07
2022-12-25T12:29:59.707Z,5.09
2022-12-25T12:32:40.881Z,5.11
2022-12-25T12:35:23.000Z,5.13
2022-12-25T12:37:57.103Z,5.15
2022-12-25T12:40:39.700Z,5.18
2022-12-25T12:43:30.096Z,5.20
2022-12-25T12:46:08.320Z,5.22
2022-12-25T12:48:49.047Z,5.23
2022-12-25T12:51:33.744Z,5.20
2022-12-25T12:54:23.657Z,5.20
2022-12-25T12:57:05.714Z,5.21
2022-12-25T12:59:46.328Z,5.23
2022-12-25T13:02:52.366Z,5.24
2022-12-25T13:05:34.737Z,5.26
2022-12-25T13:08:17.883Z,5.27
2022-12-25T13:10:52.872Z,5.28
2022-12-25T13:13:27.382Z,5.30
2022-12-25T13:16:02.170Z,5.31
2022-12-25T13:18:34.854Z,5.32
2022-12-25T13:21:15.760Z,5.32
2022-12-25T13:23:48.516Z,5.34
2022-12-25T13:26:20.526Z,5.35
2022-12-25T13:28:58.474Z,5.35
2022-12-25T13:31:34.040Z,5.34
2022-12-25T13:34:10.933Z,5.33
2022-12-25T13:36:44.239Z,5.33
2022-12-25T13:39:20.457Z,5.34
2022-12-25T13:42:07.836Z,5.34
2022-12-25T13:44:46.859Z,5.32
2022-12-25T13:47:25.015Z,5.31
2022-12-25T13:49:59.160Z,5.28
2022-12-25T13:52:37.810Z,5.25
2022-12-25T13:55:16.138Z,5.22
2022-12-25T13:57:50.672Z,5.19
2022-12-25T14:00:25.830Z,5.15
2022-12-25T14:02:59.151Z,5.13
2022-12-25T14:05:39.561Z,5.11
2022-12-25T14:08:18.459Z,5.09
2022-12-25T14:10:52.517Z,5.08
2022-12-25T14:13:26.418Z,5.06
2022-12-25T14:15:59.016Z,5.05
2022-12-25T14:18:31.570Z,5.03
2022-12-25T14:21:05.331Z,5.03
2022-12-25T14:23:42.446Z,5.01
2022-12-25T14:26:21.254Z,5.00
2022-12-25T14:28:55.197Z,4.99
2022-12-25T14:31:29.340Z,4.98
2022-12-25T14:34:03.290Z,4.96
2022-12-25T14:36:36.134Z,4.96
2022-12-25T14:39:09.126Z,4.95
2022-12-25T14:41:42.850Z,4.95
2022-12-25T14:44:31.420Z,4.94
2022-12-25T14:47:23.026Z,4.94
2022-12-25T14:49:54.948Z,4.93
2022-12-25T14:52:28.715Z,4.93
2022-12-25T14:55:03.266Z,4.92
2022-12-25T14:57:38.814Z,4.93
2022-12-25T15:00:24.458Z,4.94
2022-12-25T15:02:58.324Z,4.94
2022-12-25T15:05:36.256Z,4.95
2022-12-25T15:08:22.944Z,4.95
2022-12-25T15:11:00.493Z,4.96
2022-12-25T15:13:36.843Z,4.96
2022-12-25T15:16:13.634Z,4.95
2022-12-25T15:18:47.389Z,4.93
2022-12-25T15:21:21.929Z,4.92
2022-12-25T15:23:55.016Z,4.90
2022-12-25T15:26:27.722Z,4.90
2022-12-25T15:28:59.998Z,4.89
2022-12-25T15:31:34.282Z,4.87
2022-12-25T15:34:08.394Z,4.85
2022-12-25T15:36:40.457Z,4.82
2022-12-25T15:39:12.511Z,4.79
2022-12-25T15:42:02.377Z,4.77
2022-12-25T15:44:34.252Z,4.76
2022-12-25T15:47:06.466Z,4.75
2022-12-25T15:49:38.368Z,4.74
2022-12-25T15:52:11.973Z,4.73
2022-12-25T15:54:44.387Z,4.71
2022-12-25T15:57:22.306Z,4.69
2022-12-25T15:59:54.687Z,4.67
2022-12-25T16:02:28.328Z,4.65
2022-12-25T16:05:04.112Z,4.62
2022-12-25T16:07:38.883Z,4.60
2022-12-25T16:10:17.487Z,4.59
2022-12-25T16:12:49.399Z,4.59
2022-12-25T16:15:21.277Z,4.59
2022-12-25T16:17:53.225Z,4.58
2022-12-25T16:20:25.229Z,4.57
2022-12-25T16:22:58.575Z,4.56
2022-12-25T16:25:30.683Z,4.55
2022-12-25T16:28:03.714Z,4.54
2022-12-25T16:30:35.680Z,4.52
2022-12-25T16:33:07.932Z,4.50
2022-12-25T16:35:42.254Z,4.49
2022-12-25T16:38:16.824Z,4.49
2022-12-25T16:40:51.633Z,4.49
2022-12-25T16:43:25.427Z,4.49
2022-12-25T16:45:57.836Z,4.47
2022-12-25T16:48:29.975Z,4.46
2022-12-25T16:51:02.285Z,4.45
2022-12-25T16:53:37.198Z,4.45
2022-12-25T16:56:10.179Z,4.45
2022-12-25T16:58:43.174Z,4.46
2022-12-25T17:01:16.769Z,4.47
2022-12-25T17:03:49.296Z,4.48
2022-12-25T17:06:23.221Z,4.48
2022-12-25T17:08:54.339Z,4.48
2022-12-25T17:11:29.739Z,4.47
2022-12-25T17:14:03.762Z,4.47
2022-12-25T17:16:38.124Z,4.48
2022-12-25T17:19:16.934Z,4.49
2022-12-25T17:21:49.268Z,4.50
2022-12-25T17:24:21.356Z,4.50
2022-12-25T17:26:53.387Z,4.50
2022-12-25T17:29:26.360Z,4.50
2022-12-25T17:31:58.239Z,4.51
2022-12-25T17:34:30.063Z,4.50
2022-12-25T17:37:02.495Z,4.51
2022-12-25T17:39:34.469Z,4.50
2022-12-25T17:42:06.889Z,4.51
2022-12-25T17:44:38.770Z,4.50
2022-12-25T17:47:10.961Z,4.51
2022-12-25T17:49:43.438Z,4.49
2022-12-25T17:52:15.432Z,4.49
2022-12-25T17:54:47.245Z,4.49
2022-12-25T17:57:19.278Z,4.49
2022-12-25T17:59:51.259Z,4.50
2022-12-25T18:02:23.654Z,4.50
2022-12-25T18:04:55.648Z,4.50
2022-12-25T18:07:28.402Z,4.50
2022-12-25T18:10:00.635Z,4.50
2022-12-25T18:12:32.893Z,4.50
2022-12-25T18:15:06.741Z,4.50
2022-12-25T18:17:39.447Z,4.50
2022-12-25T18:20:14.115Z,4.50
2022-12-25T18:22:46.516Z,4.50
2022-12-25T18:25:18.986Z,4.50
2022-12-25T18:27:50.994Z,4.50
2022-12-25T18:30:23.194Z,4.50
2022-12-25T18:32:55.495Z,4.51
2022-12-25T18:35:29.938Z,4.51
2022-12-25T18:38:06.921Z,4.51
2022-12-25T18:40:52.897Z,4.51
2022-12-25T18:43:53.218Z,4.52
2022-12-25T18:46:34.781Z,4.53
2022-12-25T18:49:29.179Z,4.54
2022-12-25T18:52:47.576Z,4.54
2022-12-25T18:55:36.718Z,4.55
2022-12-25T18:58:23.638Z,4.55
2022-12-25T19:01:21.978Z,4.54
2022-12-25T19:04:16.592Z,4.54
2022-12-25T19:06:53.201Z,4.54
2022-12-25T19:09:36.439Z,4.54
2022-12-25T19:12:09.116Z,4.53
2022-12-25T19:14:57.148Z,4.51
2022-12-25T19:17:36.922Z,4.49
2022-12-25T19:20:27.624Z,4.46
2022-12-25T19:23:07.062Z,4.43
2022-12-25T19:25:43.856Z,4.39
2022-12-25T19:28:27.992Z,4.35
2022-12-25T19:31:11.928Z,4.32
2022-12-25T19:33:49.358Z,4.29
2022-12-25T19:36:21.656Z,4.26
2022-12-25T19:38:53.793Z,4.25
2022-12-25T19:41:26.838Z,4.23
2022-12-25T19:44:16.299Z,4.21
2022-12-25T19:46:49.703Z,4.19
2022-12-25T19:49:21.746Z,4.17
2022-12-25T19:52:12.094Z,4.15
2022-12-25T19:54:43.941Z,4.13
2022-12-25T19:57:23.291Z,4.08
2022-12-25T19:59:55.273Z,4.06
2022-12-25T20:02:33.173Z,4.04
2022-12-25T20:05:38.176Z,4.00
2022-12-25T20:08:10.635Z,3.98
2022-12-25T20:10:56.712Z,3.97
2022-12-25T20:13:28.796Z,3.96
2022-12-25T20:16:11.282Z,3.94
2022-12-25T20:19:37.517Z,3.94
2022-12-25T20:22:14.570Z,3.92
2022-12-25T20:24:47.837Z,3.91
2022-12-25T20:27:28.749Z,3.89
2022-12-25T20:30:02.205Z,3.89
2022-12-25T20:32:50.083Z,3.88
2022-12-25T20:35:25.319Z,3.86
2022-12-25T20:37:57.192Z,3.84
2022-12-25T20:40:29.107Z,3.84
2022-12-25T20:43:01.125Z,3.84
2022-12-25T20:45:34.216Z,3.83
2022-12-25T20:48:07.605Z,3.83
2022-12-25T20:50:40.135Z,3.83
2022-12-25T20:53:12.335Z,3.81
2022-12-25T20:55:48.764Z,3.80
2022-12-25T20:58:20.869Z,3.79
2022-12-25T21:00:52.993Z,3.78
2022-12-25T21:03:25.040Z,3.76
2022-12-25T21:05:57.874Z,3.75
2022-12-25T21:08:30.121Z,3.74
2022-12-25T21:11:04.260Z,3.72
2022-12-25T21:13:35.608Z,3.70
2022-12-25T21:16:10.311Z,3.69
2022-12-25T21:18:42.473Z,3.69
2022-12-25T21:21:15.024Z,3.69
2022-12-25T21:23:47.523Z,3.69
2022-12-25T21:26:21.640Z,3.70
2022-12-25T21:28:55.756Z,3.71
2022-12-25T21:31:26.510Z,3.73
2022-12-25T21:34:00.676Z,3.72
2022-12-25T21:36:35.196Z,3.74
2022-12-25T21:39:06.594Z,3.74
2022-12-25T21:41:41.467Z,3.75
2022-12-25T21:44:13.432Z,3.75
2022-12-25T21:46:45.988Z,3.76
2022-12-25T21:49:38.483Z,3.76
2022-12-25T21:52:11.558Z,3.76
2022-12-25T21:54:43.866Z,3.76
2022-12-25T21:57:15.993Z,3.76
2022-12-25T21:59:47.931Z,3.77
2022-12-25T22:02:20.288Z,3.77
2022-12-25T22:04:52.412Z,3.78
2022-12-25T22:07:24.748Z,3.79
2022-12-25T22:09:57.003Z,3.79
2022-12-25T22:12:47.130Z,3.79
2022-12-25T22:15:19.211Z,3.79
2022-12-25T22:18:08.809Z,3.79
2022-12-25T22:20:41.748Z,3.79
2022-12-25T22:23:14.590Z,3.78
2022-12-25T22:25:46.518Z,3.78
2022-12-25T22:28:18.624Z,3.78
2022-12-25T22:30:50.794Z,3.78
2022-12-25T22:33:23.297Z,3.78
2022-12-25T22:36:05.064Z,3.78
2022-12-25T22:38:37.338Z,3.79
2022-12-25T22:41:09.971Z,3.79
2022-12-25T22:44:15.947Z,3.79
2022-12-25T22:46:33.914Z,3.79
2022-12-25T22:49:06.011Z,3.80
2022-12-25T22:51:37.838Z,3.80
2022-12-25T22:54:09.903Z,3.81
2022-12-25T22:56:44.073Z,3.81
2022-12-25T22:59:17.388Z,3.82
2022-12-25T23:01:48.877Z,3.82
2022-12-25T23:04:21.195Z,3.81
2022-12-25T23:06:53.616Z,3.79
2022-12-25T23:09:28.483Z,3.78
2022-12-25T23:12:01.704Z,3.76
2022-12-25T23:14:42.571Z,3.75
2022-12-25T23:17:29.267Z,3.74
2022-12-25T23:20:20.033Z,3.72
2022-12-25T23:23:09.965Z,3.71
2022-12-25T23:25:59.705Z,3.70
2022-12-25T23:28:49.017Z,3.70
2022-12-25T23:31:21.446Z,3.68
2022-12-25T23:33:53.899Z,3.67
2022-12-25T23:36:26.410Z,3.67
2022-12-25T23:39:04.750Z,3.66
2022-12-25T23:41:41.600Z,3.67
2022-12-25T23:44:13.797Z,3.67
2022-12-25T23:46:53.316Z,3.67
2022-12-25T23:49:26.684Z,3.68
2022-12-25T23:51:59.100Z,3.68
2022-12-25T23:54:32.514Z,3.69
2022-12-25T23:57:04.497Z,3.69
2022-12-25T23:59:38.817Z,3.69
